Portada
METAR-TAF:

METAR-TAF

Aeroports :

Ardabil, Iran

latitud: 38-19-35N, longitud: 048-25-28E, altitud: 1315 m

Observació

L'informe es va fer fa 29 minuts, a les 09:00 UTC
Vent 12 kt del Oest/Nord-Oest, variant entre Sud-Oest i Nord
Temperatura 31°C
Humitat 16%
Pressió 1012 hPa
Visibilitat 10 km o més
Escasses núvols a una alçada de 4000 ft, Cumulus congestus.
Escasses núvols a una alçada de 5000 ft, Cumulonimbus.

METAR: OITL 020900Z 29012KT 230V360 9999 FEW040TCU FEW050CB 31/02 Q1012

Hora: 13:59 (09:29 UTC)


TAF: manca

Observacions i pronòstics meteorològics de més de 4000 aeroports (METAR i TAF).

Les estacions disponibles són els punts grocs i vermells al mapa.

Posi el ratolí al punt desitjat per veure el nom de l'estació.

Feu clic per veure les observacions i els pronòstics meteorològics.

Per canviar el mapa: feu clic els botons verds amb una creu de color negre per apropar; al botó verd amb un guió per allunyar la imatge; o en les fletxes verdes per a mapes adjacents.


METAR-TAF: